Time;durP1;ratioP1;P1;durP2;ratioP2;P2;SDS_P1;SDS_P2;PMS_P1;PMS_P2;Temp;Humidity;BMP_temperature;BMP_pressure;BME280_temperature;BME280_humidity;BME280_pressure;Samples;Min_cycle;Max_cycle;Signal;HPM_P1;HPM_P2
2023/08/02 00:02:00;;;;;;;2.05;1.00;;;;;;;;;;5091148;28;20562;-61
2023/08/02 00:04:29;;;;;;;2.00;1.10;;;;;;;;;;5102690;27;20044;-60
2023/08/02 00:06:57;;;;;;;3.03;1.15;;;;;;;;;;5098608;28;20036;-63
2023/08/02 00:09:27;;;;;;;4.13;1.20;;;;;;;;;;5100944;28;20040;-62
2023/08/02 00:11:55;;;;;;;4.78;1.15;;;;;;;;;;5107417;28;20039;-59
2023/08/02 00:14:23;;;;;;;2.63;0.98;;;;;;;;;;5099231;28;20048;-62
2023/08/02 00:16:53;;;;;;;3.20;1.40;;;;;;;;;;5101961;28;20128;-62
2023/08/02 00:19:22;;;;;;;1.85;1.08;;;;;;;;;;5104398;28;20076;-63
2023/08/02 00:21:50;;;;;;;2.90;0.93;;;;;;;;;;5097515;28;20050;-60
2023/08/02 00:24:18;;;;;;;2.83;1.30;;;;;;;;;;5096552;28;20413;-61
2023/08/02 00:26:47;;;;;;;1.80;1.10;;;;;;;;;;5098991;28;20039;-60
2023/08/02 00:29:16;;;;;;;3.78;1.23;;;;;;;;;;5098162;28;20101;-62
2023/08/02 00:31:44;;;;;;;5.38;1.42;;;;;;;;;;5097046;27;20104;-63
2023/08/02 00:34:14;;;;;;;2.63;1.10;;;;;;;;;;5103545;27;20098;-63
2023/08/02 00:36:43;;;;;;;2.40;1.20;;;;;;;;;;5105716;28;20051;-65
2023/08/02 00:39:12;;;;;;;4.05;2.00;;;;;;;;;;5108685;28;20047;-60
2023/08/02 00:41:40;;;;;;;1.65;1.13;;;;;;;;;;5100641;27;20497;-59
2023/08/02 00:44:08;;;;;;;2.17;1.10;;;;;;;;;;5101645;28;20105;-62
2023/08/02 00:46:37;;;;;;;3.28;1.30;;;;;;;;;;5090232;28;20043;-63
2023/08/02 00:49:05;;;;;;;2.35;1.27;;;;;;;;;;5103302;28;20148;-61
2023/08/02 00:51:35;;;;;;;1.67;1.00;;;;;;;;;;5098849;28;20071;-62
2023/08/02 00:54:05;;;;;;;1.77;1.00;;;;;;;;;;5102529;28;20083;-60
2023/08/02 00:56:33;;;;;;;5.13;1.50;;;;;;;;;;5103513;28;20065;-61
2023/08/02 00:59:02;;;;;;;2.92;1.90;;;;;;;;;;5106652;28;20055;-61
2023/08/02 01:04:06;;;;;;;3.85;1.50;;;;;;;;;;5082580;28;20036;-69
2023/08/02 01:06:38;;;;;;;3.28;1.30;;;;;;;;;;5089372;28;20043;-65
2023/08/02 01:09:09;;;;;;;4.38;1.35;;;;;;;;;;5085647;28;20044;-63
2023/08/02 01:11:40;;;;;;;2.63;1.13;;;;;;;;;;5082420;28;20052;-63
2023/08/02 01:14:11;;;;;;;3.47;1.33;;;;;;;;;;5083270;28;20044;-65
2023/08/02 01:16:40;;;;;;;4.95;1.27;;;;;;;;;;5081618;28;20145;-62
2023/08/02 01:19:12;;;;;;;4.53;1.45;;;;;;;;;;5078793;28;20052;-63
2023/08/02 01:21:42;;;;;;;6.25;1.63;;;;;;;;;;5081610;28;20082;-63
2023/08/02 01:24:10;;;;;;;2.88;1.40;;;;;;;;;;5078682;28;20076;-62
2023/08/02 01:26:40;;;;;;;2.10;1.20;;;;;;;;;;5077086;28;20052;-62
2023/08/02 01:29:09;;;;;;;2.17;1.27;;;;;;;;;;5085073;28;20052;-63
2023/08/02 01:31:38;;;;;;;5.60;1.45;;;;;;;;;;5077527;28;20076;-66
2023/08/02 01:34:07;;;;;;;3.08;1.08;;;;;;;;;;5083079;28;20564;-62
2023/08/02 01:36:35;;;;;;;2.92;1.42;;;;;;;;;;5075941;28;20040;-64
2023/08/02 01:39:07;;;;;;;3.05;1.33;;;;;;;;;;5086226;28;20569;-66
2023/08/02 01:41:36;;;;;;;4.50;1.58;;;;;;;;;;5079287;28;20070;-63
2023/08/02 01:44:04;;;;;;;2.20;0.95;;;;;;;;;;5074452;28;20053;-66
2023/08/02 01:46:32;;;;;;;6.25;1.92;;;;;;;;;;5078655;28;20071;-70
2023/08/02 01:49:01;;;;;;;9.75;2.17;;;;;;;;;;5073783;28;20048;-63
2023/08/02 01:51:29;;;;;;;7.25;2.20;;;;;;;;;;5086116;28;20052;-63
2023/08/02 01:53:57;;;;;;;7.90;2.53;;;;;;;;;;5084762;28;20068;-62
2023/08/02 01:56:27;;;;;;;4.95;1.67;;;;;;;;;;5082615;28;20476;-64
2023/08/02 01:58:55;;;;;;;3.50;1.38;;;;;;;;;;5083370;28;20433;-62
2023/08/02 02:01:24;;;;;;;3.65;1.20;;;;;;;;;;5083254;28;20075;-66
2023/08/02 02:03:53;;;;;;;3.08;1.30;;;;;;;;;;5087218;28;20522;-64
2023/08/02 02:06:21;;;;;;;2.17;1.15;;;;;;;;;;5085196;28;20056;-66
2023/08/02 02:08:50;;;;;;;1.83;1.20;;;;;;;;;;5087086;28;20054;-62
2023/08/02 02:11:19;;;;;;;2.88;1.30;;;;;;;;;;5079993;28;20093;-62
2023/08/02 02:13:49;;;;;;;4.28;1.60;;;;;;;;;;5082618;28;20044;-62
2023/08/02 02:16:17;;;;;;;5.20;1.50;;;;;;;;;;5074907;28;20492;-63
2023/08/02 02:18:45;;;;;;;3.30;1.45;;;;;;;;;;5079336;28;20145;-68
2023/08/02 02:21:14;;;;;;;1.92;1.15;;;;;;;;;;5082922;28;20109;-62
2023/08/02 02:23:42;;;;;;;3.90;1.35;;;;;;;;;;5078519;28;20068;-62
2023/08/02 02:26:10;;;;;;;2.17;1.23;;;;;;;;;;5079206;28;20044;-63
2023/08/02 02:28:39;;;;;;;3.78;1.20;;;;;;;;;;5079898;28;20478;-64
2023/08/02 02:31:08;;;;;;;2.63;1.40;;;;;;;;;;5081018;28;20720;-62
2023/08/02 02:33:37;;;;;;;1.73;1.23;;;;;;;;;;5080853;28;20112;-62
2023/08/02 02:36:06;;;;;;;4.60;1.63;;;;;;;;;;5080895;28;20044;-63
2023/08/02 02:38:34;;;;;;;1.92;1.05;;;;;;;;;;5084841;28;20059;-63
2023/08/02 02:41:02;;;;;;;2.95;1.30;;;;;;;;;;5083873;28;20040;-62
2023/08/02 02:43:31;;;;;;;2.60;1.40;;;;;;;;;;5077316;28;20138;-64
2023/08/02 02:45:59;;;;;;;2.65;1.23;;;;;;;;;;5083361;28;20420;-64
2023/08/02 02:48:29;;;;;;;3.05;1.70;;;;;;;;;;5076588;28;20495;-62
2023/08/02 02:50:57;;;;;;;3.15;1.40;;;;;;;;;;5077983;28;20557;-62
2023/08/02 02:53:25;;;;;;;2.30;1.15;;;;;;;;;;5087565;28;20071;-63
2023/08/02 02:55:56;;;;;;;1.80;1.10;;;;;;;;;;5079919;28;20446;-62
2023/08/02 02:58:24;;;;;;;4.05;1.30;;;;;;;;;;5085937;28;20043;-62
2023/08/02 03:00:53;;;;;;;2.40;1.20;;;;;;;;;;5082392;28;20400;-62
2023/08/02 03:03:22;;;;;;;6.68;1.42;;;;;;;;;;5081071;28;20412;-69
2023/08/02 03:05:54;;;;;;;3.85;1.73;;;;;;;;;;5083868;28;20135;-63
2023/08/02 03:08:22;;;;;;;3.70;1.52;;;;;;;;;;5076691;28;20043;-69
2023/08/02 03:10:50;;;;;;;2.40;1.05;;;;;;;;;;5085356;28;20043;-62
2023/08/02 03:13:19;;;;;;;4.88;1.95;;;;;;;;;;5087499;28;20079;-62
2023/08/02 03:15:47;;;;;;;5.43;1.67;;;;;;;;;;5081692;28;20114;-62
2023/08/02 03:18:15;;;;;;;4.10;1.52;;;;;;;;;;5080471;28;20484;-62
2023/08/02 03:20:44;;;;;;;2.17;1.27;;;;;;;;;;5084788;28;20044;-64
2023/08/02 03:23:14;;;;;;;3.45;1.33;;;;;;;;;;5082627;28;20040;-63
2023/08/02 03:25:42;;;;;;;2.08;1.05;;;;;;;;;;5083046;28;20048;-63
2023/08/02 03:28:10;;;;;;;3.58;1.42;;;;;;;;;;5079295;28;20051;-64
2023/08/02 03:30:39;;;;;;;4.18;1.80;;;;;;;;;;5082034;28;20098;-64
2023/08/02 03:33:07;;;;;;;4.53;1.35;;;;;;;;;;5081926;28;20039;-63
2023/08/02 03:35:35;;;;;;;2.85;1.45;;;;;;;;;;5077239;28;20493;-63
2023/08/02 03:38:04;;;;;;;3.72;1.33;;;;;;;;;;5080872;28;20048;-62
2023/08/02 03:40:34;;;;;;;4.25;1.40;;;;;;;;;;5082890;28;20052;-64
2023/08/02 03:43:02;;;;;;;2.63;1.52;;;;;;;;;;5087323;28;20097;-63
2023/08/02 03:45:31;;;;;;;3.92;1.15;;;;;;;;;;5086709;28;20189;-66
2023/08/02 03:47:59;;;;;;;2.58;1.17;;;;;;;;;;5082831;28;20052;-65
2023/08/02 03:50:28;;;;;;;6.35;1.33;;;;;;;;;;5084782;28;20544;-62
2023/08/02 03:52:58;;;;;;;1.70;1.10;;;;;;;;;;5082800;28;20093;-64
2023/08/02 03:55:26;;;;;;;2.95;1.40;;;;;;;;;;5076536;28;20052;-64
2023/08/02 03:57:56;;;;;;;3.25;1.55;;;;;;;;;;5077349;28;20048;-64
2023/08/02 04:00:24;;;;;;;2.30;1.27;;;;;;;;;;5078170;28;20153;-64
2023/08/02 04:02:53;;;;;;;1.88;1.17;;;;;;;;;;5081212;28;20600;-62
2023/08/02 04:05:21;;;;;;;3.35;1.92;;;;;;;;;;5075155;28;20390;-62
2023/08/02 04:07:49;;;;;;;2.95;1.27;;;;;;;;;;5079558;28;20070;-66
2023/08/02 04:10:18;;;;;;;3.63;1.52;;;;;;;;;;5084561;28;20076;-62
2023/08/02 04:12:46;;;;;;;4.57;2.08;;;;;;;;;;5079762;28;20133;-65
2023/08/02 04:15:16;;;;;;;3.70;1.80;;;;;;;;;;5076554;28;20492;-62
2023/08/02 04:17:44;;;;;;;4.15;1.30;;;;;;;;;;5081316;28;20094;-63
2023/08/02 04:20:13;;;;;;;3.40;1.48;;;;;;;;;;5080129;28;20052;-62
2023/08/02 04:22:41;;;;;;;2.15;1.27;;;;;;;;;;5078660;28;20459;-63
2023/08/02 04:25:10;;;;;;;5.90;1.30;;;;;;;;;;5080198;28;20587;-62
2023/08/02 04:27:38;;;;;;;5.20;1.60;;;;;;;;;;5081308;28;20052;-63
2023/08/02 04:30:07;;;;;;;5.95;1.50;;;;;;;;;;5085229;28;20172;-63
2023/08/02 04:32:37;;;;;;;1.83;1.23;;;;;;;;;;5078694;28;20126;-65
2023/08/02 04:35:06;;;;;;;4.20;1.77;;;;;;;;;;5080347;28;20080;-63
2023/08/02 04:37:35;;;;;;;2.22;1.30;;;;;;;;;;5080460;28;20500;-69
2023/08/02 04:40:03;;;;;;;1.75;1.38;;;;;;;;;;5081276;28;20083;-63
2023/08/02 04:42:32;;;;;;;2.20;1.23;;;;;;;;;;5078937;28;20048;-62
2023/08/02 04:45:00;;;;;;;3.55;1.60;;;;;;;;;;5078757;28;20087;-64
2023/08/02 04:47:28;;;;;;;3.88;1.48;;;;;;;;;;5078309;28;20049;-64
2023/08/02 04:49:59;;;;;;;2.25;1.55;;;;;;;;;;5080411;28;20510;-62
2023/08/02 04:52:28;;;;;;;3.00;1.60;;;;;;;;;;5078166;28;20431;-62
2023/08/02 04:54:56;;;;;;;2.60;1.55;;;;;;;;;;5082081;28;20492;-63
2023/08/02 04:57:25;;;;;;;2.97;1.48;;;;;;;;;;5080178;28;20044;-64
2023/08/02 04:59:54;;;;;;;3.33;1.75;;;;;;;;;;5080168;28;20068;-65
2023/08/02 05:02:26;;;;;;;5.20;2.05;;;;;;;;;;5078343;28;20167;-68
2023/08/02 05:04:54;;;;;;;3.10;1.40;;;;;;;;;;5081469;28;20040;-62
2023/08/02 05:07:24;;;;;;;2.58;1.42;;;;;;;;;;5083352;28;20052;-62
2023/08/02 05:09:52;;;;;;;2.38;1.40;;;;;;;;;;5081586;28;20071;-63
2023/08/02 05:12:21;;;;;;;6.03;1.70;;;;;;;;;;5084630;28;20044;-63
2023/08/02 05:14:49;;;;;;;2.65;1.60;;;;;;;;;;5075330;28;20109;-62
2023/08/02 05:17:17;;;;;;;3.13;1.48;;;;;;;;;;5081281;28;20048;-63
2023/08/02 05:19:46;;;;;;;2.38;1.55;;;;;;;;;;5076101;28;20049;-64
2023/08/02 05:22:14;;;;;;;3.55;1.63;;;;;;;;;;5076713;28;20508;-63
2023/08/02 05:24:44;;;;;;;3.55;1.75;;;;;;;;;;5078648;28;20562;-67
2023/08/02 05:27:12;;;;;;;9.05;1.48;;;;;;;;;;5082473;28;20488;-62
2023/08/02 05:29:41;;;;;;;4.07;1.55;;;;;;;;;;5079336;28;20048;-63
2023/08/02 05:32:09;;;;;;;3.70;1.42;;;;;;;;;;5084967;28;20043;-62
2023/08/02 05:34:37;;;;;;;2.75;1.70;;;;;;;;;;5087593;28;20108;-68
2023/08/02 05:37:06;;;;;;;2.55;1.52;;;;;;;;;;5087319;28;20052;-65
2023/08/02 05:39:34;;;;;;;3.70;1.77;;;;;;;;;;5080673;28;20052;-62
2023/08/02 05:42:04;;;;;;;3.38;1.52;;;;;;;;;;5083616;28;20114;-61
2023/08/02 05:44:36;;;;;;;2.28;1.35;;;;;;;;;;5078770;28;20071;-65
2023/08/02 05:47:05;;;;;;;3.03;1.50;;;;;;;;;;5083803;28;20097;-65
2023/08/02 05:49:33;;;;;;;2.90;1.48;;;;;;;;;;5083303;28;20043;-63
2023/08/02 05:52:01;;;;;;;6.93;1.67;;;;;;;;;;5082860;28;20044;-63
2023/08/02 05:54:30;;;;;;;2.53;1.33;;;;;;;;;;5081413;28;20067;-62
2023/08/02 05:56:58;;;;;;;4.40;1.60;;;;;;;;;;5081718;28;20101;-63
2023/08/02 05:59:28;;;;;;;2.65;1.70;;;;;;;;;;5082965;28;20127;-64
2023/08/02 06:01:56;;;;;;;3.28;1.27;;;;;;;;;;5082380;28;20055;-66
2023/08/02 06:04:25;;;;;;;2.85;1.60;;;;;;;;;;5078132;28;20129;-64
2023/08/02 06:06:53;;;;;;;4.28;1.63;;;;;;;;;;5084193;28;20048;-63
2023/08/02 06:09:22;;;;;;;2.60;1.40;;;;;;;;;;5084989;28;20459;-63
2023/08/02 06:11:50;;;;;;;3.05;1.65;;;;;;;;;;5081416;28;20105;-62
2023/08/02 06:14:18;;;;;;;5.18;1.10;;;;;;;;;;5079865;28;20121;-63
2023/08/02 06:16:48;;;;;;;4.32;1.38;;;;;;;;;;5079958;28;20355;-62
2023/08/02 06:19:17;;;;;;;2.90;1.27;;;;;;;;;;5083210;28;20448;-62
2023/08/02 06:21:45;;;;;;;2.85;1.20;;;;;;;;;;5083528;28;20101;-62
2023/08/02 06:24:13;;;;;;;3.90;1.50;;;;;;;;;;5081951;28;20101;-66
2023/08/02 06:26:42;;;;;;;3.15;1.38;;;;;;;;;;5080519;28;20493;-65
2023/08/02 06:29:13;;;;;;;4.07;1.58;;;;;;;;;;5080845;28;20064;-66
2023/08/02 06:31:42;;;;;;;2.88;1.35;;;;;;;;;;5083666;28;20122;-63
2023/08/02 06:34:12;;;;;;;3.40;1.50;;;;;;;;;;5083089;28;20398;-64
2023/08/02 06:36:40;;;;;;;3.38;1.40;;;;;;;;;;5080880;28;20117;-63
2023/08/02 06:39:09;;;;;;;3.13;1.23;;;;;;;;;;5078207;28;20052;-63
2023/08/02 06:41:37;;;;;;;3.38;1.08;;;;;;;;;;5077814;28;20160;-63
2023/08/02 06:44:06;;;;;;;3.80;1.38;;;;;;;;;;5082266;28;20044;-62
2023/08/02 06:46:34;;;;;;;3.78;1.50;;;;;;;;;;5078312;28;20048;-63
2023/08/02 06:49:03;;;;;;;3.33;0.95;;;;;;;;;;5077319;28;20488;-63
2023/08/02 06:51:33;;;;;;;2.67;1.25;;;;;;;;;;5076409;28;20093;-63
2023/08/02 06:54:01;;;;;;;2.63;1.13;;;;;;;;;;5076560;28;20044;-65
2023/08/02 06:56:30;;;;;;;8.65;1.88;;;;;;;;;;5078260;28;20104;-62
2023/08/02 06:58:58;;;;;;;2.25;1.10;;;;;;;;;;5085580;28;20048;-67
2023/08/02 07:01:26;;;;;;;3.90;1.42;;;;;;;;;;5080347;28;20130;-64
2023/08/02 07:03:55;;;;;;;3.83;1.30;;;;;;;;;;5076740;28;20048;-68
2023/08/02 07:06:23;;;;;;;2.65;1.35;;;;;;;;;;5080809;28;20059;-62
2023/08/02 07:08:53;;;;;;;4.07;1.27;;;;;;;;;;5079377;28;20044;-62
2023/08/02 07:11:22;;;;;;;2.55;1.17;;;;;;;;;;5081413;28;20056;-63
2023/08/02 07:14:04;;;;;;;2.05;1.08;;;;;;;;;;5076181;28;20083;-71
2023/08/02 07:16:33;;;;;;;2.00;1.25;;;;;;;;;;5082409;28;20119;-63
2023/08/02 07:19:02;;;;;;;2.40;1.35;;;;;;;;;;5080673;28;20153;-63
2023/08/02 07:21:32;;;;;;;4.05;1.30;;;;;;;;;;5081630;28;20048;-63
2023/08/02 07:24:01;;;;;;;3.55;1.20;;;;;;;;;;5083827;28;20044;-64
2023/08/02 07:26:30;;;;;;;4.95;1.30;;;;;;;;;;5079084;28;20416;-68
2023/08/02 07:28:58;;;;;;;3.35;1.52;;;;;;;;;;5077967;28;20064;-65
2023/08/02 07:31:27;;;;;;;2.33;1.25;;;;;;;;;;5082125;28;20465;-64
2023/08/02 07:33:55;;;;;;;3.63;1.65;;;;;;;;;;5079686;28;20048;-63
2023/08/02 07:36:23;;;;;;;2.05;1.30;;;;;;;;;;5075778;28;20040;-63
2023/08/02 07:38:52;;;;;;;6.57;1.70;;;;;;;;;;5082490;28;20424;-64
2023/08/02 07:41:22;;;;;;;2.10;1.38;;;;;;;;;;5076011;28;20048;-64
2023/08/02 07:43:50;;;;;;;7.88;1.85;;;;;;;;;;5080409;28;20083;-63
2023/08/02 07:46:19;;;;;;;6.22;1.52;;;;;;;;;;5076339;28;20527;-64
2023/08/02 07:48:47;;;;;;;4.53;1.30;;;;;;;;;;5082609;28;20056;-63
2023/08/02 07:51:16;;;;;;;2.95;1.30;;;;;;;;;;5080092;28;20048;-67
2023/08/02 07:53:44;;;;;;;3.53;1.38;;;;;;;;;;5074942;28;20117;-68
2023/08/02 07:56:13;;;;;;;5.68;1.60;;;;;;;;;;5079302;28;20044;-65
2023/08/02 07:58:42;;;;;;;3.58;1.58;;;;;;;;;;5077740;28;20150;-62
2023/08/02 08:01:11;;;;;;;3.33;1.42;;;;;;;;;;5084806;28;20068;-72
2023/08/02 08:03:40;;;;;;;5.65;2.00;;;;;;;;;;5077937;28;20389;-65
2023/08/02 08:06:12;;;;;;;5.65;1.83;;;;;;;;;;5075319;28;20036;-65
2023/08/02 08:08:40;;;;;;;5.28;1.85;;;;;;;;;;5081501;28;20492;-63
2023/08/02 08:11:09;;;;;;;4.32;1.65;;;;;;;;;;5081423;28;20052;-62
2023/08/02 08:13:37;;;;;;;3.83;1.85;;;;;;;;;;5076947;28;20401;-62
2023/08/02 08:16:07;;;;;;;4.40;1.58;;;;;;;;;;5078018;28;20056;-61
2023/08/02 08:18:36;;;;;;;3.67;1.60;;;;;;;;;;5082841;28;20070;-63
2023/08/02 08:21:06;;;;;;;2.53;1.40;;;;;;;;;;5078098;28;20106;-64
2023/08/02 08:23:35;;;;;;;3.72;2.05;;;;;;;;;;5074439;28;20040;-63
2023/08/02 08:26:03;;;;;;;6.60;1.90;;;;;;;;;;5077760;28;20412;-62
2023/08/02 08:28:31;;;;;;;2.20;1.48;;;;;;;;;;5083131;28;20117;-63
2023/08/02 08:31:00;;;;;;;4.45;1.92;;;;;;;;;;5083379;28;20056;-64
2023/08/02 08:33:30;;;;;;;5.72;1.67;;;;;;;;;;5083816;28;20170;-64
2023/08/02 08:35:59;;;;;;;4.05;1.75;;;;;;;;;;5082886;28;20040;-63
2023/08/02 08:38:27;;;;;;;4.47;1.70;;;;;;;;;;5084770;28;20048;-62
2023/08/02 08:40:56;;;;;;;2.80;1.50;;;;;;;;;;5082072;28;20504;-63
2023/08/02 08:43:27;;;;;;;3.05;1.38;;;;;;;;;;5080494;28;20109;-63
2023/08/02 08:45:57;;;;;;;5.57;1.40;;;;;;;;;;5079920;28;20079;-68
2023/08/02 08:48:26;;;;;;;3.65;1.70;;;;;;;;;;5086967;28;20048;-62
2023/08/02 08:50:57;;;;;;;4.53;1.55;;;;;;;;;;5084026;28;20040;-62
2023/08/02 08:53:32;;;;;;;3.05;1.60;;;;;;;;;;5084861;28;20047;-64
2023/08/02 08:56:00;;;;;;;;;;;;;;;;;;5084162;28;20037;-66
2023/08/02 08:58:28;;;;;;;2.92;1.60;;;;;;;;;;5085429;28;19934;-63
2023/08/02 09:00:58;;;;;;;3.88;1.77;;;;;;;;;;5088645;28;20044;-62
2023/08/02 09:03:26;;;;;;;6.72;2.00;;;;;;;;;;5084182;28;20510;-66
2023/08/02 09:05:59;;;;;;;3.67;1.70;;;;;;;;;;5083407;28;20051;-63
2023/08/02 09:08:28;;;;;;;2.88;1.60;;;;;;;;;;5081788;28;20040;-63
2023/08/02 09:10:56;;;;;;;5.05;1.58;;;;;;;;;;5082275;28;20048;-64
2023/08/02 09:13:25;;;;;;;3.55;1.60;;;;;;;;;;5079601;28;20117;-63
2023/08/02 09:16:06;;;;;;;2.47;1.58;;;;;;;;;;5084682;28;20101;-63
2023/08/02 09:18:36;;;;;;;5.40;1.95;;;;;;;;;;5081909;28;20599;-66
2023/08/02 09:21:06;;;;;;;4.97;1.40;;;;;;;;;;5085474;28;20484;-64
2023/08/02 09:23:34;;;;;;;4.88;2.03;;;;;;;;;;5082045;28;20760;-65
2023/08/02 09:26:11;;;;;;;3.53;1.60;;;;;;;;;;5082399;28;20116;-63
2023/08/02 09:28:39;;;;;;;5.68;1.80;;;;;;;;;;5080781;28;20067;-66
2023/08/02 09:31:14;;;;;;;2.63;1.30;;;;;;;;;;5080947;28;20106;-65
2023/08/02 09:33:42;;;;;;;;;;;;;;;;;;5085927;28;20093;-64
2023/08/02 09:36:12;;;;;;;7.80;1.77;;;;;;;;;;5083843;28;19920;-63
2023/08/02 09:38:41;;;;;;;6.03;1.50;;;;;;;;;;5078012;28;20461;-66
2023/08/02 09:41:22;;;;;;;3.42;1.92;;;;;;;;;;5082977;28;20630;-64
2023/08/02 09:44:10;;;;;;;3.85;1.50;;;;;;;;;;5084129;28;20062;-65
2023/08/02 09:46:38;;;;;;;3.05;1.60;;;;;;;;;;5078212;28;20063;-64
2023/08/02 09:49:18;;;;;;;3.97;2.10;;;;;;;;;;5082919;28;20084;-65
2023/08/02 09:51:48;;;;;;;6.65;2.08;;;;;;;;;;5083654;28;20336;-64
2023/08/02 09:54:17;;;;;;;3.88;1.73;;;;;;;;;;5077602;28;20059;-64
2023/08/02 09:56:45;;;;;;;2.83;1.45;;;;;;;;;;5079396;28;20043;-63
2023/08/02 09:59:14;;;;;;;4.38;1.77;;;;;;;;;;5081788;28;20044;-65
2023/08/02 10:01:42;;;;;;;3.17;1.63;;;;;;;;;;5077149;28;20048;-64
2023/08/02 10:04:12;;;;;;;4.05;2.00;;;;;;;;;;5083614;28;20147;-64
2023/08/02 10:06:44;;;;;;;3.83;1.80;;;;;;;;;;5085861;28;20089;-63
2023/08/02 10:09:17;;;;;;;4.82;2.10;;;;;;;;;;5083917;28;20467;-65
2023/08/02 10:11:49;;;;;;;2.53;1.40;;;;;;;;;;5082535;28;20051;-62
2023/08/02 10:14:17;;;;;;;4.22;1.70;;;;;;;;;;5080377;28;20059;-64
2023/08/02 10:16:46;;;;;;;4.45;1.77;;;;;;;;;;5084887;28;20104;-66
2023/08/02 10:19:17;;;;;;;3.28;1.63;;;;;;;;;;5080323;28;20040;-69
2023/08/02 10:21:45;;;;;;;3.75;1.70;;;;;;;;;;5084001;28;20052;-64
2023/08/02 10:24:15;;;;;;;4.82;1.30;;;;;;;;;;5078346;28;20044;-66
2023/08/02 10:26:44;;;;;;;6.80;1.77;;;;;;;;;;5083286;28;20101;-64
2023/08/02 10:29:14;;;;;;;5.43;1.85;;;;;;;;;;5080805;28;20496;-63
2023/08/02 10:31:42;;;;;;;3.60;1.73;;;;;;;;;;5077804;28;20048;-63
2023/08/02 10:34:37;;;;;;;3.42;1.85;;;;;;;;;;5085634;28;20113;-64
2023/08/02 10:37:06;;;;;;;3.55;1.88;;;;;;;;;;5056686;28;20467;-65
2023/08/02 10:39:52;;;;;;;3.50;1.63;;;;;;;;;;5079683;28;20040;-62
2023/08/02 10:42:22;;;;;;;5.03;1.60;;;;;;;;;;5080892;28;20052;-62
2023/08/02 10:45:09;;;;;;;3.17;1.70;;;;;;;;;;5082535;28;20583;-64
2023/08/02 10:47:37;;;;;;;3.33;1.60;;;;;;;;;;5082197;28;20508;-65
2023/08/02 10:50:07;;;;;;;4.97;1.67;;;;;;;;;;5079023;28;20048;-67
2023/08/02 10:52:36;;;;;;;3.90;2.00;;;;;;;;;;5081100;28;20048;-62
2023/08/02 10:55:07;;;;;;;3.63;1.85;;;;;;;;;;5078993;28;20056;-62
2023/08/02 10:57:37;;;;;;;4.10;2.28;;;;;;;;;;5082804;28;20552;-63
2023/08/02 11:00:15;;;;;;;4.97;2.20;;;;;;;;;;5079908;28;20503;-64
2023/08/02 11:02:48;;;;;;;3.92;1.90;;;;;;;;;;5080596;28;20064;-62
2023/08/02 11:05:19;;;;;;;3.92;2.20;;;;;;;;;;5081624;28;20072;-63
2023/08/02 11:08:00;;;;;;;3.55;1.83;;;;;;;;;;5082304;28;20491;-64
2023/08/02 11:10:28;;;;;;;5.18;2.00;;;;;;;;;;5077964;28;20040;-63
2023/08/02 11:12:58;;;;;;;4.78;2.35;;;;;;;;;;5078976;28;20390;-68
2023/08/02 11:15:26;;;;;;;3.45;2.13;;;;;;;;;;5075768;28;20044;-63
2023/08/02 11:17:58;;;;;;;4.47;1.88;;;;;;;;;;5078259;28;20051;-64
2023/08/02 11:20:28;;;;;;;3.65;1.70;;;;;;;;;;5080487;28;20036;-71
2023/08/02 11:22:56;;;;;;;4.40;2.05;;;;;;;;;;5077554;28;20044;-65
2023/08/02 11:25:25;;;;;;;5.32;1.95;;;;;;;;;;5077689;28;20078;-62
2023/08/02 11:28:05;;;;;;;4.07;1.77;;;;;;;;;;5082120;28;20519;-64
2023/08/02 11:30:34;;;;;;;4.32;2.22;;;;;;;;;;5080204;28;20044;-66
2023/08/02 11:33:02;;;;;;;3.65;1.92;;;;;;;;;;5081453;28;20126;-66
2023/08/02 11:35:31;;;;;;;3.55;2.08;;;;;;;;;;5079311;28;20404;-64
2023/08/02 11:38:00;;;;;;;3.90;1.85;;;;;;;;;;5078841;28;20492;-63
2023/08/02 11:40:35;;;;;;;3.78;1.92;;;;;;;;;;5079113;28;20117;-63
2023/08/02 11:43:09;;;;;;;3.20;1.67;;;;;;;;;;5079529;28;20047;-65
2023/08/02 11:45:37;;;;;;;2.42;1.63;;;;;;;;;;5079952;28;20044;-64
2023/08/02 11:48:06;;;;;;;3.88;1.60;;;;;;;;;;5079746;28;20048;-64
2023/08/02 11:50:40;;;;;;;2.45;1.30;;;;;;;;;;5079986;28;20060;-64
2023/08/02 11:53:08;;;;;;;4.20;1.60;;;;;;;;;;5079486;28;20122;-63
2023/08/02 11:55:38;;;;;;;3.38;1.88;;;;;;;;;;5081808;28;20036;-64
2023/08/02 11:58:09;;;;;;;2.72;1.60;;;;;;;;;;5082825;28;20062;-64
2023/08/02 12:00:38;;;;;;;4.68;2.00;;;;;;;;;;5083494;28;20523;-64
2023/08/02 12:03:11;;;;;;;3.83;2.00;;;;;;;;;;5087370;28;20048;-64
2023/08/02 12:05:39;;;;;;;4.10;2.28;;;;;;;;;;5089012;28;20055;-63
2023/08/02 12:08:11;;;;;;;3.20;1.48;;;;;;;;;;5085486;28;20044;-63
2023/08/02 12:10:40;;;;;;;2.53;1.23;;;;;;;;;;5086017;28;20048;-64
2023/08/02 12:13:14;;;;;;;2.75;1.75;;;;;;;;;;5088962;28;20044;-64
2023/08/02 12:15:44;;;;;;;3.60;1.33;;;;;;;;;;5081392;28;20595;-65
2023/08/02 12:18:12;;;;;;;2.72;1.58;;;;;;;;;;5077608;28;20543;-65
2023/08/02 12:20:40;;;;;;;4.45;1.42;;;;;;;;;;5084678;28;20052;-65
2023/08/02 12:23:09;;;;;;;1.88;0.98;;;;;;;;;;5077345;28;20048;-64
2023/08/02 12:25:44;;;;;;;1.38;1.15;;;;;;;;;;5085964;28;20048;-70
2023/08/02 12:28:16;;;;;;;3.15;1.30;;;;;;;;;;5084283;28;20066;-63
2023/08/02 12:31:00;;;;;;;6.72;1.15;;;;;;;;;;5087837;28;20381;-67
2023/08/02 12:33:29;;;;;;;1.98;1.23;;;;;;;;;;5084277;28;20063;-67
2023/08/02 12:35:57;;;;;;;2.80;1.40;;;;;;;;;;5085038;28;20064;-63
2023/08/02 12:38:29;;;;;;;1.85;1.20;;;;;;;;;;5088357;28;20051;-63
2023/08/02 12:40:58;;;;;;;2.85;1.20;;;;;;;;;;5080819;28;20040;-63
2023/08/02 12:43:28;;;;;;;1.63;1.00;;;;;;;;;;5082075;28;20044;-66
2023/08/02 12:45:56;;;;;;;3.80;1.95;;;;;;;;;;5084377;28;20493;-66
2023/08/02 12:48:25;;;;;;;1.90;1.10;;;;;;;;;;5086434;28;20129;-63
2023/08/02 12:50:53;;;;;;;3.17;1.17;;;;;;;;;;5080453;28;20123;-63
2023/08/02 12:53:21;;;;;;;4.88;1.38;;;;;;;;;;5079138;28;20526;-64
2023/08/02 12:55:50;;;;;;;1.60;0.90;;;;;;;;;;5082514;28;20056;-64
2023/08/02 12:58:21;;;;;;;2.00;0.73;;;;;;;;;;5079519;28;20044;-63
2023/08/02 13:00:53;;;;;;;2.72;1.17;;;;;;;;;;5076568;28;20055;-66
2023/08/02 13:03:21;;;;;;;1.70;1.00;;;;;;;;;;5084100;28;20458;-63
2023/08/02 13:05:50;;;;;;;1.67;1.15;;;;;;;;;;5080091;28;20138;-67
2023/08/02 13:08:19;;;;;;;1.95;1.20;;;;;;;;;;5087748;28;20044;-65
2023/08/02 13:10:47;;;;;;;1.73;1.10;;;;;;;;;;5083490;28;20067;-65
2023/08/02 13:13:16;;;;;;;2.28;1.10;;;;;;;;;;5080232;28;20165;-66
2023/08/02 13:15:45;;;;;;;1.40;0.90;;;;;;;;;;5079657;28;20098;-64
2023/08/02 13:18:15;;;;;;;1.98;1.10;;;;;;;;;;5083149;28;20132;-69
2023/08/02 13:20:44;;;;;;;1.60;0.88;;;;;;;;;;5082780;28;20048;-65
2023/08/02 13:23:12;;;;;;;3.88;1.08;;;;;;;;;;5083627;28;20048;-65
2023/08/02 13:25:40;;;;;;;1.42;1.00;;;;;;;;;;5078077;28;20045;-64
2023/08/02 13:28:09;;;;;;;2.40;1.10;;;;;;;;;;5083541;28;20053;-64
2023/08/02 13:30:37;;;;;;;1.58;1.05;;;;;;;;;;5082567;28;20113;-64
2023/08/02 13:33:05;;;;;;;3.63;1.30;;;;;;;;;;5079448;28;20083;-64
2023/08/02 13:35:35;;;;;;;4.68;1.05;;;;;;;;;;5081336;28;20040;-64
2023/08/02 13:38:03;;;;;;;1.80;1.17;;;;;;;;;;5081225;28;20043;-65
2023/08/02 13:40:32;;;;;;;2.63;1.20;;;;;;;;;;5084288;28;20507;-64
2023/08/02 13:43:00;;;;;;;4.65;1.23;;;;;;;;;;5082183;28;20048;-64
2023/08/02 13:45:29;;;;;;;1.88;1.00;;;;;;;;;;5080196;28;20145;-65
2023/08/02 13:47:57;;;;;;;2.55;0.98;;;;;;;;;;5082950;28;20047;-65
2023/08/02 13:50:28;;;;;;;1.63;0.90;;;;;;;;;;5084014;28;20044;-65
2023/08/02 13:52:57;;;;;;;3.47;1.15;;;;;;;;;;5082371;28;20044;-65
2023/08/02 13:55:26;;;;;;;1.50;1.00;;;;;;;;;;5080970;28;20044;-66
2023/08/02 13:57:54;;;;;;;1.48;0.85;;;;;;;;;;5079657;28;21856;-67
2023/08/02 14:00:23;;;;;;;1.65;1.00;;;;;;;;;;5080951;28;20045;-65
2023/08/02 14:02:51;;;;;;;2.90;1.08;;;;;;;;;;5082046;28;20430;-63
2023/08/02 14:05:19;;;;;;;2.80;1.20;;;;;;;;;;5083828;28;20045;-63
2023/08/02 14:07:48;;;;;;;1.55;0.88;;;;;;;;;;5083102;28;20519;-64
2023/08/02 14:10:18;;;;;;;2.05;1.10;;;;;;;;;;5082747;28;20047;-65
2023/08/02 14:12:46;;;;;;;2.78;0.95;;;;;;;;;;5082231;28;20060;-66
2023/08/02 14:15:15;;;;;;;3.88;1.00;;;;;;;;;;5083077;28;20048;-64
2023/08/02 14:17:43;;;;;;;1.73;1.10;;;;;;;;;;5084739;28;20052;-64
2023/08/02 14:20:12;;;;;;;2.40;0.80;;;;;;;;;;5075529;28;20044;-66
2023/08/02 14:22:41;;;;;;;2.17;0.95;;;;;;;;;;5083295;28;20072;-65
2023/08/02 14:25:10;;;;;;;1.15;0.82;;;;;;;;;;5079904;28;20507;-64
2023/08/02 14:27:40;;;;;;;2.20;1.13;;;;;;;;;;5080477;28;20063;-69
2023/08/02 14:30:09;;;;;;;1.48;1.10;;;;;;;;;;5080597;28;20040;-65
2023/08/02 14:32:37;;;;;;;2.00;1.13;;;;;;;;;;5084730;28;20108;-64
2023/08/02 14:35:06;;;;;;;3.05;1.38;;;;;;;;;;5080938;28;20051;-63
2023/08/02 14:37:35;;;;;;;1.58;1.40;;;;;;;;;;5079627;28;20044;-63
2023/08/02 14:40:03;;;;;;;2.60;1.15;;;;;;;;;;5081180;28;20045;-62
2023/08/02 14:42:32;;;;;;;2.22;1.35;;;;;;;;;;5086377;28;20037;-63
2023/08/02 14:45:02;;;;;;;2.15;1.10;;;;;;;;;;5085907;28;20040;-61
2023/08/02 14:47:30;;;;;;;2.40;1.13;;;;;;;;;;5079819;28;20036;-63
2023/08/02 14:49:58;;;;;;;1.38;1.08;;;;;;;;;;5082568;28;20163;-62
2023/08/02 14:52:27;;;;;;;1.50;1.10;;;;;;;;;;5077015;28;20096;-68
2023/08/02 14:54:55;;;;;;;1.77;1.15;;;;;;;;;;5081575;28;20055;-61
2023/08/02 14:57:24;;;;;;;3.60;1.25;;;;;;;;;;5087422;28;20044;-62
2023/08/02 14:59:52;;;;;;;1.80;1.25;;;;;;;;;;5081065;28;20090;-62